createdAt,value
2023-02-27T00:00:47.104Z,101004.08
2023-02-27T00:03:17.613Z,101001.33
2023-02-27T00:05:48.095Z,101001.92
2023-02-27T00:08:18.556Z,101002.95
2023-02-27T00:10:48.980Z,101005.02
2023-02-27T00:13:20.839Z,101003.36
2023-02-27T00:15:51.888Z,101006.91
2023-02-27T00:18:22.404Z,101005.06
2023-02-27T00:20:52.813Z,101010.29
2023-02-27T00:23:23.242Z,101013.96
2023-02-27T00:25:54.858Z,101011.83
2023-02-27T00:28:25.858Z,101013.43
2023-02-27T00:30:56.496Z,101013.02
2023-02-27T00:33:26.948Z,101014.82
2023-02-27T00:36:01.969Z,101015.51
2023-02-27T00:38:32.617Z,101017.29
2023-02-27T00:41:03.359Z,101014.84
2023-02-27T00:43:33.804Z,101014.12
2023-02-27T00:46:05.334Z,101009.80
2023-02-27T00:48:35.940Z,101009.72
2023-02-27T00:51:06.978Z,101010.79
2023-02-27T00:53:37.494Z,101012.53
2023-02-27T00:56:09.084Z,101010.26
2023-02-27T00:58:39.568Z,101009.59
2023-02-27T01:01:10.133Z,101011.88
2023-02-27T01:03:40.795Z,101006.45
2023-02-27T01:06:11.485Z,101009.33
2023-02-27T01:08:41.945Z,101005.73
2023-02-27T01:11:12.422Z,101002.64
2023-02-27T01:13:44.355Z,101003.13
2023-02-27T01:16:15.515Z,100999.98
2023-02-27T01:18:46.141Z,101000.30
2023-02-27T01:21:16.996Z,100999.52
2023-02-27T01:23:48.856Z,100998.35
2023-02-27T01:26:23.784Z,100997.31
2023-02-27T01:28:54.297Z,100997.73
2023-02-27T01:31:25.111Z,100998.64
2023-02-27T01:33:57.888Z,101004.79
2023-02-27T01:36:28.460Z,101001.86
2023-02-27T01:38:58.924Z,101005.98
2023-02-27T01:41:29.890Z,101006.91
2023-02-27T01:44:03.403Z,101005.16
2023-02-27T01:46:34.956Z,101009.43
2023-02-27T01:49:10.731Z,101014.32
2023-02-27T01:51:44.603Z,101014.17
2023-02-27T01:54:18.603Z,101016.00
2023-02-27T01:56:49.540Z,101018.88
2023-02-27T01:59:21.220Z,101017.04
2023-02-27T02:01:54.373Z,101016.65
2023-02-27T02:04:28.330Z,101017.40
2023-02-27T02:07:04.368Z,101021.59
2023-02-27T02:09:37.258Z,101021.30
2023-02-27T02:12:09.210Z,101017.85
2023-02-27T02:14:39.740Z,101019.83
2023-02-27T02:17:17.126Z,101021.27
2023-02-27T02:20:02.632Z,101018.24
2023-02-27T02:22:59.967Z,101020.17
2023-02-27T02:25:59.790Z,101021.70
2023-02-27T02:28:57.506Z,101023.25
2023-02-27T02:31:43.025Z,101026.58
2023-02-27T02:34:52.915Z,101026.70
2023-02-27T02:37:59.167Z,101029.52
2023-02-27T02:40:40.355Z,101029.73
2023-02-27T02:43:17.945Z,101034.91
2023-02-27T02:45:56.260Z,101038.13
2023-02-27T02:48:33.161Z,101040.06
2023-02-27T02:51:16.777Z,101041.48
2023-02-27T02:53:54.373Z,101044.42
2023-02-27T02:56:30.418Z,101052.71
2023-02-27T02:59:05.774Z,101055.77
2023-02-27T03:01:42.083Z,101059.86
2023-02-27T03:04:19.489Z,101058.55
2023-02-27T03:06:55.097Z,101065.14
2023-02-27T03:09:31.446Z,101070.11
2023-02-27T03:12:04.235Z,101068.51
2023-02-27T03:14:40.876Z,101071.41
2023-02-27T03:17:16.563Z,101081.01
2023-02-27T03:19:55.078Z,101077.90
2023-02-27T03:22:31.228Z,101083.16
2023-02-27T03:25:04.309Z,101079.64
2023-02-27T03:27:39.457Z,101082.15
2023-02-27T03:30:17.141Z,101084.20
2023-02-27T03:32:56.897Z,101085.10
2023-02-27T03:35:33.987Z,101083.48
2023-02-27T03:38:12.964Z,101086.50
2023-02-27T03:40:50.700Z,101084.98
2023-02-27T03:43:32.112Z,101086.13
2023-02-27T03:46:09.611Z,101090.60
2023-02-27T03:48:44.454Z,101093.92
2023-02-27T03:51:18.303Z,101096.84
2023-02-27T03:53:56.317Z,101101.29
2023-02-27T03:56:30.752Z,101106.17
2023-02-27T03:59:01.879Z,101106.34
2023-02-27T04:01:33.174Z,101102.48
2023-02-27T04:04:09.208Z,101102.55
2023-02-27T04:07:21.199Z,101107.30
2023-02-27T04:10:15.700Z,101108.48
2023-02-27T04:13:28.818Z,101107.12
2023-02-27T04:16:20.964Z,101110.58
2023-02-27T04:19:04.795Z,101111.71
2023-02-27T04:21:42.819Z,101113.48
2023-02-27T04:24:22.210Z,101112.39
2023-02-27T04:26:56.972Z,101113.73
2023-02-27T04:29:38.464Z,101116.99
2023-02-27T04:32:17.023Z,101119.42
2023-02-27T04:34:53.265Z,101120.56
2023-02-27T04:37:28.886Z,101121.31
2023-02-27T04:40:06.649Z,101121.95
2023-02-27T04:42:39.973Z,101123.24
2023-02-27T04:45:16.141Z,101124.30
2023-02-27T04:47:52.732Z,101124.65
2023-02-27T04:50:28.681Z,101123.95
2023-02-27T04:53:04.085Z,101126.59
2023-02-27T04:55:37.417Z,101128.27
2023-02-27T04:58:13.924Z,101131.36
2023-02-27T05:00:49.226Z,101133.85
2023-02-27T05:03:25.583Z,101136.88
2023-02-27T05:05:59.449Z,101137.80
2023-02-27T05:08:34.978Z,101140.50
2023-02-27T05:11:10.606Z,101143.89
2023-02-27T05:13:46.881Z,101144.98
2023-02-27T05:16:22.260Z,101146.21
2023-02-27T05:18:53.081Z,101145.69
2023-02-27T05:21:29.221Z,101147.77
2023-02-27T05:24:12.532Z,101152.65
2023-02-27T05:26:56.156Z,101156.12
2023-02-27T05:29:37.369Z,101157.42
2023-02-27T05:32:17.914Z,101156.95
2023-02-27T05:34:53.917Z,101156.06
2023-02-27T05:37:30.738Z,101152.87
2023-02-27T05:40:06.185Z,101156.14
2023-02-27T05:42:41.739Z,101161.00
2023-02-27T05:45:16.255Z,101166.13
2023-02-27T05:47:53.866Z,101163.02
2023-02-27T05:50:27.535Z,101168.52
2023-02-27T05:53:03.908Z,101170.67
2023-02-27T05:55:39.002Z,101174.37
2023-02-27T05:58:16.949Z,101176.54
2023-02-27T06:00:52.031Z,101178.73
2023-02-27T06:03:23.048Z,101182.41
2023-02-27T06:05:54.896Z,101184.41
2023-02-27T06:08:26.293Z,101187.38
2023-02-27T06:10:56.735Z,101189.61
2023-02-27T06:13:27.209Z,101189.42
2023-02-27T06:15:57.697Z,101186.04
2023-02-27T06:18:28.375Z,101185.11
2023-02-27T06:20:58.886Z,101186.74
2023-02-27T06:23:29.370Z,101185.05
2023-02-27T06:26:00.593Z,101188.48
2023-02-27T06:28:31.354Z,101192.45
2023-02-27T06:31:02.062Z,101195.34
2023-02-27T06:33:33.293Z,101194.36
2023-02-27T06:36:03.832Z,101197.73
2023-02-27T06:38:34.852Z,101200.08
2023-02-27T06:41:05.572Z,101202.48
2023-02-27T06:43:37.207Z,101203.34
2023-02-27T06:46:08.175Z,101206.96
2023-02-27T06:48:38.662Z,101212.23
2023-02-27T06:51:09.315Z,101213.48
2023-02-27T06:53:39.763Z,101212.34
2023-02-27T06:56:11.023Z,101217.58
2023-02-27T06:58:41.473Z,101219.80
2023-02-27T07:01:13.479Z,101220.42
2023-02-27T07:03:43.991Z,101220.14
2023-02-27T07:06:15.010Z,101222.95
2023-02-27T07:09:01.513Z,101226.56
2023-02-27T07:11:36.534Z,101228.88
2023-02-27T07:14:07.476Z,101233.05
2023-02-27T07:16:37.892Z,101235.71
2023-02-27T07:19:08.860Z,101236.70
2023-02-27T07:21:39.859Z,101237.64
2023-02-27T07:24:11.225Z,101235.40
2023-02-27T07:26:41.648Z,101235.72
2023-02-27T07:29:12.125Z,101238.38
2023-02-27T07:31:42.824Z,101240.95
2023-02-27T07:34:13.874Z,101244.08
2023-02-27T07:36:44.426Z,101247.63
2023-02-27T07:39:15.835Z,101247.71
2023-02-27T07:41:46.257Z,101250.67
2023-02-27T07:44:20.761Z,101252.91
2023-02-27T07:46:51.598Z,101252.79
2023-02-27T07:49:22.210Z,101250.78
2023-02-27T07:51:52.685Z,101251.89
2023-02-27T07:54:23.215Z,101256.05
2023-02-27T07:56:53.678Z,101260.10
2023-02-27T07:59:24.151Z,101262.61
2023-02-27T08:01:54.648Z,101261.64
2023-02-27T08:04:25.593Z,101265.55
2023-02-27T08:06:56.194Z,101267.92
2023-02-27T08:09:26.607Z,101264.91
2023-02-27T08:11:57.235Z,101266.18
2023-02-27T08:14:27.862Z,101270.67
2023-02-27T08:16:58.315Z,101263.63
2023-02-27T08:19:28.905Z,101265.73
2023-02-27T08:21:59.473Z,101268.10
2023-02-27T08:24:30.308Z,101269.23
2023-02-27T08:27:00.729Z,101276.02
2023-02-27T08:29:32.987Z,101271.94
2023-02-27T08:32:04.782Z,101278.05
2023-02-27T08:34:35.238Z,101283.33
2023-02-27T08:37:06.006Z,101284.07
2023-02-27T08:39:36.478Z,101281.55
2023-02-27T08:42:07.781Z,101279.04
2023-02-27T08:44:38.297Z,101278.89
2023-02-27T08:47:08.818Z,101275.54
2023-02-27T08:49:39.301Z,101278.11
2023-02-27T08:52:10.109Z,101284.24
2023-02-27T08:54:40.557Z,101281.63
2023-02-27T08:57:11.020Z,101281.52
2023-02-27T08:59:41.440Z,101286.12
2023-02-27T09:02:12.562Z,101292.10
2023-02-27T09:04:42.987Z,101292.18
2023-02-27T09:07:13.412Z,101292.95
2023-02-27T09:09:43.831Z,101297.08
2023-02-27T09:12:14.282Z,101293.61
2023-02-27T09:14:44.894Z,101298.30
2023-02-27T09:17:15.302Z,101296.17
2023-02-27T09:19:46.605Z,101295.79
2023-02-27T09:22:17.007Z,101295.63
2023-02-27T09:24:47.469Z,101300.52
2023-02-27T09:27:17.883Z,101298.38
2023-02-27T09:29:48.983Z,101296.58
2023-02-27T09:32:19.438Z,101298.28
2023-02-27T09:34:50.445Z,101304.68
2023-02-27T09:37:21.283Z,101305.98
2023-02-27T09:39:51.834Z,101306.98
2023-02-27T09:42:24.784Z,101307.77
2023-02-27T09:44:58.186Z,101309.19
2023-02-27T09:47:34.869Z,101310.39
2023-02-27T09:50:09.160Z,101310.19
2023-02-27T09:52:40.538Z,101308.55
2023-02-27T09:55:18.812Z,101312.73
2023-02-27T09:57:56.441Z,101310.95
2023-02-27T10:00:49.197Z,101316.27
2023-02-27T10:03:39.597Z,101314.86
2023-02-27T10:06:24.032Z,101321.94
2023-02-27T10:09:05.559Z,101321.33
2023-02-27T10:11:45.720Z,101318.70
2023-02-27T10:14:29.552Z,101319.66
2023-02-27T10:17:03.965Z,101323.08
2023-02-27T10:19:38.668Z,101321.64
2023-02-27T10:22:15.672Z,101321.21
2023-02-27T10:24:53.054Z,101323.41
2023-02-27T10:27:24.489Z,101320.75
2023-02-27T10:29:59.334Z,101319.19
2023-02-27T10:32:34.064Z,101320.05
2023-02-27T10:35:10.513Z,101319.42
2023-02-27T10:37:47.602Z,101319.58
2023-02-27T10:40:20.647Z,101316.50
2023-02-27T10:42:52.665Z,101316.89
2023-02-27T10:45:23.079Z,101321.85
2023-02-27T10:47:53.627Z,101319.31
2023-02-27T10:50:27.544Z,101321.27
2023-02-27T10:53:00.708Z,101320.47
2023-02-27T10:55:33.641Z,101320.34
2023-02-27T10:58:06.099Z,101318.45
2023-02-27T11:00:45.113Z,101320.61
2023-02-27T11:03:28.944Z,101314.42
2023-02-27T11:06:02.794Z,101314.36
2023-02-27T11:08:35.028Z,101309.79
2023-02-27T11:11:05.795Z,101307.78
2023-02-27T11:13:38.449Z,101307.30
2023-02-27T11:16:14.095Z,101303.64
2023-02-27T11:18:45.650Z,101303.95
2023-02-27T11:21:26.205Z,101305.73
2023-02-27T11:24:02.555Z,101304.81
2023-02-27T11:26:36.351Z,101306.30
2023-02-27T11:29:18.425Z,101307.25
2023-02-27T11:31:53.470Z,101304.77
2023-02-27T11:34:28.067Z,101304.25
2023-02-27T11:37:01.874Z,101299.64
2023-02-27T11:39:48.806Z,101303.54
2023-02-27T11:42:25.713Z,101301.81
2023-02-27T11:45:00.896Z,101302.36
2023-02-27T11:47:35.509Z,101296.42
2023-02-27T11:50:26.577Z,101297.61
2023-02-27T11:53:04.472Z,101298.39
2023-02-27T11:55:35.540Z,101301.45
2023-02-27T11:58:14.911Z,101296.89
2023-02-27T12:00:50.553Z,101293.45
2023-02-27T12:03:26.314Z,101292.17
2023-02-27T12:06:01.032Z,101293.98
2023-02-27T12:08:36.994Z,101294.02
2023-02-27T12:11:14.950Z,101291.83
2023-02-27T12:13:50.672Z,101297.07
2023-02-27T12:16:32.271Z,101296.42
2023-02-27T12:19:13.754Z,101293.83
2023-02-27T12:21:49.723Z,101294.64
2023-02-27T12:24:25.844Z,101295.88
2023-02-27T12:27:07.573Z,101296.44
2023-02-27T12:29:42.953Z,101297.46
2023-02-27T12:32:19.178Z,101296.93
2023-02-27T12:34:53.091Z,101297.55
2023-02-27T12:37:26.657Z,101301.00
2023-02-27T12:40:00.054Z,101302.96
2023-02-27T12:42:47.680Z,101304.15
2023-02-27T12:45:41.789Z,101302.90
2023-02-27T12:48:19.967Z,101306.02
2023-02-27T12:50:59.292Z,101308.00
2023-02-27T12:53:49.193Z,101311.12
2023-02-27T12:56:22.809Z,101310.73
2023-02-27T12:59:01.533Z,101311.48
2023-02-27T13:01:44.322Z,101307.96
2023-02-27T13:04:25.093Z,101316.73
2023-02-27T13:07:04.288Z,101317.75
2023-02-27T13:09:45.431Z,101318.05
2023-02-27T13:12:25.077Z,101316.89
2023-02-27T13:15:02.315Z,101317.66
2023-02-27T13:17:40.233Z,101326.20
2023-02-27T13:20:30.855Z,101322.39
2023-02-27T13:23:13.139Z,101321.23
2023-02-27T13:25:46.996Z,101321.23
2023-02-27T13:28:20.951Z,101317.48
2023-02-27T13:31:05.570Z,101318.38
2023-02-27T13:33:45.229Z,101323.11
2023-02-27T13:36:23.934Z,101328.21
2023-02-27T13:38:56.375Z,101331.45
2023-02-27T13:41:40.424Z,101332.41
2023-02-27T13:44:41.070Z,101334.98
2023-02-27T13:47:43.525Z,101334.73
2023-02-27T13:50:51.474Z,101332.85
2023-02-27T13:53:24.591Z,101334.33
2023-02-27T13:56:18.726Z,101333.71
2023-02-27T13:58:49.752Z,101335.45
2023-02-27T14:01:28.476Z,101334.33
2023-02-27T14:04:04.722Z,101336.92
2023-02-27T14:06:44.295Z,101338.36
2023-02-27T14:09:20.129Z,101340.52
2023-02-27T14:11:59.100Z,101341.56
2023-02-27T14:14:46.313Z,101344.95
2023-02-27T14:17:45.261Z,101346.89
2023-02-27T14:20:36.768Z,101350.40
2023-02-27T14:23:23.759Z,101351.40
2023-02-27T14:25:56.595Z,101351.92
2023-02-27T14:28:31.655Z,101353.66
2023-02-27T14:31:05.848Z,101353.44
2023-02-27T14:33:45.489Z,101354.95
2023-02-27T14:36:21.661Z,101354.08
2023-02-27T14:38:55.472Z,101358.05
2023-02-27T14:41:40.248Z,101356.64
2023-02-27T14:44:21.159Z,101364.23
2023-02-27T14:46:53.864Z,101361.88
2023-02-27T14:49:28.286Z,101364.25
2023-02-27T14:52:12.579Z,101365.70
2023-02-27T14:54:45.079Z,101365.16
2023-02-27T14:57:21.058Z,101369.40
2023-02-27T14:59:55.226Z,101371.55
2023-02-27T15:02:28.567Z,101375.79
2023-02-27T15:05:16.990Z,101378.95
2023-02-27T15:07:49.269Z,101385.27
2023-02-27T15:10:20.563Z,101387.52
2023-02-27T15:12:52.436Z,101392.41
2023-02-27T15:15:23.836Z,101397.35
2023-02-27T15:17:55.951Z,101400.39
2023-02-27T15:20:30.088Z,101395.80
2023-02-27T15:23:02.588Z,101398.48
2023-02-27T15:25:36.631Z,101399.35
2023-02-27T15:28:14.911Z,101403.77
2023-02-27T15:30:50.406Z,101407.44
2023-02-27T15:33:25.412Z,101406.67
2023-02-27T15:35:56.267Z,101407.23
2023-02-27T15:38:29.469Z,101407.17
2023-02-27T15:41:02.603Z,101408.71
2023-02-27T15:43:33.967Z,101412.81
2023-02-27T15:46:05.007Z,101412.66
2023-02-27T15:48:35.839Z,101418.00
2023-02-27T15:51:10.163Z,101421.02
2023-02-27T15:53:48.999Z,101423.42
2023-02-27T15:56:23.972Z,101424.96
2023-02-27T15:59:00.259Z,101424.52
2023-02-27T16:01:34.951Z,101430.10
2023-02-27T16:04:14.841Z,101436.35
2023-02-27T16:06:52.010Z,101440.08
2023-02-27T16:09:30.261Z,101446.47
2023-02-27T16:12:24.887Z,101444.61
2023-02-27T16:15:12.898Z,101451.45
2023-02-27T16:17:55.622Z,101450.42
2023-02-27T16:20:39.083Z,101457.05
2023-02-27T16:23:23.603Z,101453.81
2023-02-27T16:26:06.328Z,101460.11
2023-02-27T16:28:51.087Z,101462.42
2023-02-27T16:31:30.496Z,101461.44
2023-02-27T16:34:03.609Z,101465.31
2023-02-27T16:36:35.055Z,101473.38
2023-02-27T16:39:06.195Z,101472.34
2023-02-27T16:41:37.036Z,101478.88
2023-02-27T16:44:07.857Z,101478.86
2023-02-27T16:46:38.904Z,101480.02
2023-02-27T16:49:20.175Z,101480.27
2023-02-27T16:51:51.921Z,101481.65
2023-02-27T16:54:23.208Z,101486.80
2023-02-27T16:56:53.736Z,101485.47
2023-02-27T16:59:31.578Z,101486.95
2023-02-27T17:02:04.134Z,101487.54
2023-02-27T17:04:36.334Z,101494.91
2023-02-27T17:07:07.037Z,101498.24
2023-02-27T17:09:37.440Z,101499.36
2023-02-27T17:12:08.129Z,101499.05
2023-02-27T17:14:38.845Z,101503.09
2023-02-27T17:17:11.091Z,101496.10
2023-02-27T17:19:41.629Z,101499.02
2023-02-27T17:22:12.358Z,101495.36
2023-02-27T17:24:42.860Z,101498.65
2023-02-27T17:27:13.277Z,101500.17
2023-02-27T17:29:43.843Z,101503.05
2023-02-27T17:32:14.628Z,101503.89
2023-02-27T17:34:45.154Z,101505.43
2023-02-27T17:37:15.580Z,101506.64
2023-02-27T17:39:46.014Z,101510.58
2023-02-27T17:42:18.644Z,101509.52
2023-02-27T17:44:49.681Z,101508.17
2023-02-27T17:47:20.661Z,101506.23
2023-02-27T17:49:51.128Z,101504.63
2023-02-27T17:52:22.257Z,101507.45
2023-02-27T17:54:52.881Z,101510.84
2023-02-27T17:57:23.331Z,101510.77
2023-02-27T17:59:53.746Z,101512.59
2023-02-27T18:02:24.230Z,101513.96
2023-02-27T18:04:55.026Z,101514.38
2023-02-27T18:07:25.498Z,101516.32
2023-02-27T18:09:55.987Z,101520.11
2023-02-27T18:12:26.443Z,101516.60
2023-02-27T18:14:57.336Z,101517.04
2023-02-27T18:17:28.102Z,101521.21
2023-02-27T18:19:59.020Z,101522.77
2023-02-27T18:22:32.946Z,101525.61
2023-02-27T18:25:03.404Z,101526.83
2023-02-27T18:27:34.072Z,101531.98
2023-02-27T18:30:04.903Z,101529.13
2023-02-27T18:32:35.359Z,101534.58
2023-02-27T18:35:06.950Z,101533.90
2023-02-27T18:37:37.469Z,101531.27
2023-02-27T18:40:11.995Z,101534.77
2023-02-27T18:42:43.255Z,101530.59
2023-02-27T18:45:14.578Z,101537.67
2023-02-27T18:47:45.181Z,101542.70
2023-02-27T18:50:15.937Z,101549.89
2023-02-27T18:52:47.414Z,101548.14
2023-02-27T18:55:18.596Z,101552.39
2023-02-27T18:57:51.014Z,101553.23
2023-02-27T19:00:21.683Z,101555.06
2023-02-27T19:02:52.535Z,101555.70
2023-02-27T19:05:23.111Z,101558.37
2023-02-27T19:07:53.559Z,101558.49
2023-02-27T19:10:23.989Z,101566.70
2023-02-27T19:12:54.803Z,101566.79
2023-02-27T19:15:25.210Z,101567.92
2023-02-27T19:17:55.662Z,101570.78
2023-02-27T19:20:26.130Z,101571.76
2023-02-27T19:22:56.529Z,101572.02
2023-02-27T19:25:27.252Z,101570.20
2023-02-27T19:28:00.428Z,101571.39
2023-02-27T19:30:30.831Z,101575.79
2023-02-27T19:33:01.462Z,101574.44
2023-02-27T19:35:31.928Z,101577.89
2023-02-27T19:38:02.477Z,101584.48
2023-02-27T19:40:32.893Z,101582.04
2023-02-27T19:43:03.366Z,101579.83
2023-02-27T19:45:33.924Z,101579.09
2023-02-27T19:48:04.379Z,101580.89
2023-02-27T19:50:34.777Z,101582.88
2023-02-27T19:53:05.441Z,101585.67
2023-02-27T19:55:35.887Z,101585.98
2023-02-27T19:58:06.530Z,101582.23
2023-02-27T20:00:36.933Z,101587.61
2023-02-27T20:03:07.501Z,101589.80
2023-02-27T20:05:41.027Z,101596.38
2023-02-27T20:08:11.469Z,101591.76
2023-02-27T20:10:43.110Z,101598.67
2023-02-27T20:13:14.922Z,101597.29
2023-02-27T20:15:45.338Z,101599.33
2023-02-27T20:18:15.753Z,101600.98
2023-02-27T20:20:46.187Z,101607.48
2023-02-27T20:23:17.240Z,101604.84
2023-02-27T20:25:47.684Z,101607.72
2023-02-27T20:28:18.138Z,101609.27
2023-02-27T20:30:48.712Z,101610.21
2023-02-27T20:33:19.185Z,101609.77
2023-02-27T20:35:49.704Z,101610.88
2023-02-27T20:38:22.750Z,101606.24
2023-02-27T20:40:57.628Z,101609.12
2023-02-27T20:43:28.776Z,101609.79
2023-02-27T20:46:02.720Z,101610.04
2023-02-27T20:48:33.574Z,101611.20
2023-02-27T20:51:10.283Z,101612.56
2023-02-27T20:53:43.031Z,101605.82
2023-02-27T20:56:13.839Z,101609.98
2023-02-27T20:58:44.336Z,101610.61
2023-02-27T21:01:16.106Z,101613.30
2023-02-27T21:03:50.413Z,101612.39
2023-02-27T21:06:21.012Z,101614.41
2023-02-27T21:08:53.943Z,101617.10
2023-02-27T21:11:27.399Z,101621.02
2023-02-27T21:13:59.172Z,101624.93
2023-02-27T21:16:29.612Z,101623.34
2023-02-27T21:19:00.274Z,101624.73
2023-02-27T21:21:32.481Z,101623.94
2023-02-27T21:24:03.756Z,101626.81
2023-02-27T21:26:37.910Z,101624.09
2023-02-27T21:29:10.735Z,101626.68
2023-02-27T21:31:45.054Z,101628.45
2023-02-27T21:34:17.724Z,101631.05
2023-02-27T21:36:49.046Z,101632.94
2023-02-27T21:39:22.116Z,101634.84
2023-02-27T21:41:52.927Z,101634.23
2023-02-27T21:44:25.370Z,101638.77
2023-02-27T21:46:56.651Z,101635.66
2023-02-27T21:49:31.191Z,101637.38
2023-02-27T21:52:01.618Z,101637.44
2023-02-27T21:54:32.389Z,101636.98
2023-02-27T21:57:03.287Z,101637.27
2023-02-27T21:59:34.251Z,101634.89
2023-02-27T22:02:04.698Z,101634.23
2023-02-27T22:04:35.101Z,101634.04
2023-02-27T22:07:05.546Z,101632.60
2023-02-27T22:09:35.971Z,101636.52
2023-02-27T22:12:07.530Z,101638.01
2023-02-27T22:14:37.939Z,101635.45
2023-02-27T22:17:08.478Z,101639.30
2023-02-27T22:19:39.008Z,101640.90
2023-02-27T22:22:09.441Z,101640.12
2023-02-27T22:24:39.933Z,101638.17
2023-02-27T22:27:10.511Z,101636.79
2023-02-27T22:29:42.348Z,101636.73
2023-02-27T22:32:13.763Z,101635.55
2023-02-27T22:34:44.206Z,101634.81
2023-02-27T22:37:16.201Z,101632.23
2023-02-27T22:39:46.757Z,101631.70
2023-02-27T22:42:17.193Z,101630.80
2023-02-27T22:44:47.647Z,101628.85
2023-02-27T22:47:18.071Z,101632.16
2023-02-27T22:49:50.948Z,101631.79
2023-02-27T22:52:21.798Z,101633.09
2023-02-27T22:54:53.152Z,101632.56
2023-02-27T22:57:23.642Z,101635.76
2023-02-27T22:59:54.033Z,101636.25
2023-02-27T23:02:24.593Z,101638.39
2023-02-27T23:04:55.018Z,101637.67
2023-02-27T23:07:25.420Z,101639.30
2023-02-27T23:09:55.861Z,101641.94
2023-02-27T23:12:27.490Z,101643.27
2023-02-27T23:14:58.301Z,101643.55
2023-02-27T23:17:28.739Z,101648.70
2023-02-27T23:19:59.209Z,101646.27
2023-02-27T23:22:33.469Z,101648.20
2023-02-27T23:25:07.284Z,101648.26
2023-02-27T23:27:37.692Z,101651.27
2023-02-27T23:30:10.884Z,101653.69
2023-02-27T23:32:43.796Z,101653.39
2023-02-27T23:35:16.301Z,101647.77
2023-02-27T23:37:46.753Z,101653.47
2023-02-27T23:40:18.001Z,101653.64
2023-02-27T23:42:48.403Z,101651.45
2023-02-27T23:45:25.195Z,101652.84
2023-02-27T23:47:57.712Z,101655.85
2023-02-27T23:50:27.468Z,101657.23
2023-02-27T23:52:59.981Z,101656.30
2023-02-27T23:55:33.915Z,101661.96
2023-02-27T23:58:06.404Z,101660.11
